Relevés horaires Beauvechain (Belgique)


Relevés horaires à Beauvechain - Mercredi 22 Nov. 2017
Heure UTC1 Température [°C] Vent [km/h] Hum. [%] Pres.4 [hPa] Visi. [Km] Nébu. [octa] Préc.5 [mm] Cond.
2m. Res. Ros. Dir.2 Vit. Moy. Raf.3
23:00 12.6 11.1 2.0 S 14.8 -- 24.1 48 1001.5(-1.1/3h) 20 -- -- --
22:00 12.9 11.5 2.0 S 14.8 -- 20.4 47 1002(-1.1/3h) 20 -- -- --
21:00 11.6 10.1 2.0 S 13.0 -- 20.4 52 1002.2(-1.7/3h) 20 -- -- --
20:00 10.8 9.1 2.0 S 13.0 -- 20.4 54 1002.7(-1.8/3h) 20 0/8 -- --
19:00 10.2 8.4 2.9 S 13.0 -- 20.4 60 1003.2(-1.7/3h) 20 0/8 -- --
18:00 10.1 8.1 3.9 S 14.8 -- 22.2 65 1004.1(-1.7/3h) 20 0/8 -- --
17:00 10.1 8.6 3.9 S 11.1 -- 20.4 65 1004.7(-1.4/3h) 20 0/8 -- --
16:00 10.5 8.8 4.3 S 13.0 -- 16.7 65 1005.1(-1.8/3h) 20 0/8 -- --
15:00 11.8 10.6 4.9 S 11.1 -- 22.2 63 1005.7(-1.9/3h) 20 0/8 -- --
14:00 12.8 11.8 5.7 S 11.1 -- 14.8 62 1006(-2.3/3h) 18 1/8 -- --
13:00 12.6 11.6 6.0 S 11.1 -- 18.5 64 1006.8(-1.7/3h) 18 1/8 -- --
12:00 11.8 10.4 6.0 SSO 13.0 -- 22.2 68 1007.7(-1.1/3h) 15 4/8 -- --
11:00 11.3 9.5 6.6 SSO 14.8 -- 22.2 73 1008.5(-0.3/3h) 15 5/8 -- --
10:00 10.0 7.9 6.3 SSO 14.8 -- 22.2 78 1008.7(0.0/3h) 15 5/8 -- --
09:00 9.0 6.7 6.1 SSO 14.8 -- 22.2 82 1009(0.3/3h) 15 5/8 -- --
08:00 9.4 7.2 6.4 SO 14.8 -- 22.2 82 1009(0.0/3h) 15 6/8 -- --
07:00 9.5 7.6 6.7 SSO 13.0 -- 22.2 83 1008.7(-0.5/3h) 15 6/8 -- --
06:00 9.6 7.4 6.7 SSO 14.8 -- 22.2 82 1008.6(-1.0/3h) 15 6/8 -- --
05:00 9.6 7.7 6.7 SSO 13.0 -- 22.2 82 1009(-1.0/3h) 15 6/8 -- --
04:00 9.8 7.7 6.9 SSO 14.8 -- 22.2 82 1009.3(-1.1/3h) 20 -- -- --
03:00 9.8 7.9 6.8 SSO 13.0 -- 20.4 82 1009.6(-1.2/3h) 20 -- -- --
02:00 9.8 7.7 6.7 SSO 14.8 -- 20.4 81 1010(-1.2/3h) 20 -- -- --
01:00 9.6 7.7 6.7 SSO 13.0 -- 18.5 82 1010.6(-0.6/3h) 20 -- -- --
00:00 9.3 7.3 6.7 SSO 13.0 -- 20.4 84 1011(-0.7/3h) 20 -- -- --

1 Coordinated Universal Time. Actuellement il est 06:00 locale et 04:00 UTC.

2 Le vent souffle depuis la direction indiquée vers la direction oposée.

3 Les rafales max. sont disponible 40 min après l'heure du relevé.

4 Pour les stations d'altitude (plus de 600m) le géopotentiel du niveau le plus proche de la pression obligatoire est indiqué.

5 Les stations disposant d'un diffuseur peuvent indiquer "trace". Cela signifie que des précipitations ont touchés le sol mais que la quantité est inférieure à 0.1 mm.

Récapitulatif de la journée
Température [°C] Vent [km/h] Ensoleillement4 [h] Precipitations totale5 [mm] Pression [Hpa]
Min1 Max.2 Moy.3 Max. Min Max.
9.0 13.1 0 24.1 0 h 0 min 0 1001.5 1011.0

1 Température minimale relevée entre 18:00 UTC la veille et 18:00 UTC le jour donné.

2 Température maximale relevée entre 06:00 UTC le jour donné et 06:00 UTC le lendemain.

3 Vent moyen de la journée basé sur les relevés horaires.

4 Ensoleillement en heures relevé entre 06:00 UTC la veille et 06:00 UTC le jour donné.

5 Précipitations totales tombées entre 06:00 UTC la jour donné et 06:00 UTC le lendemain.

Graphiques horaires